TFM - Tactical Decision Aid (Experimental) INFO Settings
ID: Runway Winds: CIG/VIS Threshold: METAR Board: Map:

KDFW - Dallas/Fort Worth Intl

Updated at: 2253 UTC 20 Feb 2018
Latest TAF at: 2139 UTC 20 Feb 2018

TAF Board

Time2245Z20/23Z21/00Z21/01Z21/02Z21/03Z21/04Z21/05Z21/06Z21/07Z21/08Z21/09Z21/10Z21/11Z
TypeOBSPRVL
  [TEMP]  
PRVL
  [TEMP]  
PRVLPRVLPRVLPRVLPRVLPRVLPRVLPRVLPRVLPRVLPRVL
VIS65
  [1]  
5
  [1]  
55555>6>6>6>6>6>6
CIG1615
  [7]  
15
  [7]  
157777151515151515
CoverOVCBKN
  [BKN]  
BKN
  [BKN]  
BKNOVCOVCOVCOVCOVCOVCOVCOVCOVCOVC
FltCatMVFRMVFR
  [IFR]  
MVFR
  [IFR]  
MVFRIFRIFRIFRIFRMVFRMVFRMVFRMVFRMVFRMVFR
WX-RA BRSHRA VCTS
  [+RA]  
SHRA VCTS
  [+RA]  
SHRA VCTSSHRASHRASHRASHRAVCSHVCSHVCSHVCSHVCSHVCSH
WDir340360
[360]
360
[360]
360350350350350350350350350350350
WSpd2221
  [21]  
21
  [21]  
2117171717181818181818
WGst----
  [--]  
--
  [--]  
----------------------
TAF
KDFW 202139Z 2022/2124 36021KT 5SM SHRA VCTS BKN015CB
  TEMPO 2022/2101 1SM +RA BKN007
  FM210200 35017KT 5SM SHRA OVC007
  FM210600 35018KT P6SM VCSH OVC015
  FM211300 35015KT 6SM SHRA OVC008
  FM211600 36017KT 5SM SHRA VCTS OVC015CB
  FM212000 36015KT P6SM OVC012


METAR
KDFW 202245Z 34022KT 6SM -RA BR SCT006 BKN016 OVC018 11/09 A2988 RMK AO2 PK WND 33029/2228 WSHFT 2211 TSE28 WSHFT 16 FROPA TS MOVD NE P0035 T01060094
KDFW 202239Z COR 33023KT 6SM -RA BR SCT006 OVC016 11/10 A2989 RMK AO2 PK WND 33029/2228 WSHFT 2216 FROPA TSE28 TS MOVD NE P0035 T01110100
KDFW 202228Z COR 33023G29KT 2SM -RA BR BKN006 OVC014 13/12 A2988 RMK AO2 PK WND 33029/2228 WSHFT 2216 FROPA TSE28 TS MOVD NE P0035 T01280117
KDFW 202220Z COR 32018KT 1/2SM R17C/3500VP6000FT +TSRA FG FEW006 BKN014 OVC020CB 14/13 A2988 RMK AO2 PRESRR WSHFT 16 FROPA TS OHD-NE MOV NE P0022 T01440133
KDFW 202210Z 27006KT 1 1/4SM R17C/2400VP6000FT -TSRA BR BKN014 BKN020 OVC026CB 21/20 A2985 RMK AO2 TWR VIS 2 TS OHD-NE MOV NE P0014 T02110200
KDFW 202204Z 20007KT 1/2SM R17C/2400VP6000FT +TSRA BR SCT014 BKN020 OVC031CB 21/19 A2985 RMK AO2 SFC VIS 1 1/4 VIS 1/2V4 TS OHD MOV NE P0003 T02110194
KDFW 202153Z 18010KT 2SM R17C/5000VP6000FT TSRA BR BKN018 BKN023 BKN037CB OVC140 21/19 A2984 RMK AO2 TWR VIS 2 1/2 RAB35 TSB49 SLP098 TS OHD MOV NE P0004 T02110194
KDFW 202150Z 17012KT 2 1/2SM +TSRA BR BKN018 BKN023 BKN037CB OVC140 22/19 A2984 RMK AO2 RAB35 TSB49 TS OHD MOV NE P0001

TAF/METAR Board Legend

Potential Impact
  None Marginal Slight Moderate High
Visibility (sm) >5 3≤X≤5 1≤X<3 0.5≤X<1 <0.5
Ceiling (100 ft) >30 10≤X≤30 4≤X<10 2≤X<4 <2
Wind Speed (kt) <10 10≤X<20 20≤X<30 ≥30
Wind Gust (kt) <15 15≤X<25 25≤X<35 ≥35
Weather No Wx Reported VCTS -TS,-FZRA TS,FZRA +TS,+FZRA




Page loaded:  22:53 UTC  |   02:53 PM Pacific  |   03:53 PM Mountain  |   04:53 PM Central  |   05:53 PM Eastern